Terminal Aerodrome Forecast
Issued by NWS

Home | Current Version | Previous Version | Text Only | Print | Product List | Glossary On
Versions: 1 2 3 4 5 6 7 8 9 10 11 12 13 14 15
000
FTUS45 KTFX 292115 AAA
TAFGTF
TAF AMD
KGTF 292115Z 2921/3018 23011KT P6SM VCSH SCT050 SCT100
     FM300100 24008KT P6SM FEW050 SCT200
     FM300900 21009KT P6SM SCT070 BKN100
     FM301400 22013G21KT P6SM VCSH BKN060=

USA.gov is the U.S. government's official web portal to all federal, state and local government web resources and services.